createdAt,value
2018-06-02T00:01:14.708Z,21.50
2018-06-02T00:03:44.136Z,21.60
2018-06-02T00:06:12.439Z,21.60
2018-06-02T00:08:41.459Z,21.70
2018-06-02T00:11:10.671Z,21.70
2018-06-02T00:13:38.967Z,21.60
2018-06-02T00:16:07.283Z,21.60
2018-06-02T00:18:36.313Z,21.70
2018-06-02T00:21:04.637Z,21.70
2018-06-02T00:23:32.913Z,21.60
2018-06-02T00:26:01.167Z,21.70
2018-06-02T00:28:29.443Z,21.70
2018-06-02T00:30:57.728Z,21.80
2018-06-02T00:33:26.122Z,21.80
2018-06-02T00:35:55.208Z,21.80
2018-06-02T00:38:24.383Z,21.80
2018-06-02T00:40:52.631Z,21.70
2018-06-02T00:43:20.935Z,21.70
2018-06-02T00:45:49.210Z,21.70
2018-06-02T00:48:17.477Z,21.60
2018-06-02T00:50:48.640Z,21.50
2018-06-02T00:53:16.896Z,21.40
2018-06-02T00:55:46.760Z,21.30
2018-06-02T00:58:17.003Z,21.30
2018-06-02T01:00:46.076Z,21.30
2018-06-02T01:03:14.345Z,21.20
2018-06-02T01:05:42.604Z,21.20
2018-06-02T01:08:10.888Z,21.10
2018-06-02T01:10:40.148Z,21.10
2018-06-02T01:13:08.433Z,21.00
2018-06-02T01:15:36.749Z,21.00
2018-06-02T01:18:05.134Z,20.90
2018-06-02T01:20:34.695Z,20.80
2018-06-02T01:25:36.143Z,20.80
2018-06-02T01:28:04.543Z,20.80
2018-06-02T01:30:33.995Z,20.90
2018-06-02T01:33:02.259Z,20.80
2018-06-02T01:35:31.459Z,20.80
2018-06-02T01:37:59.742Z,20.80
2018-06-02T01:40:28.065Z,20.80
2018-06-02T01:42:57.494Z,20.80
2018-06-02T01:45:25.814Z,20.70
2018-06-02T01:47:54.991Z,20.60
2018-06-02T01:50:24.020Z,20.60
2018-06-02T01:52:53.170Z,20.70
2018-06-02T01:55:21.455Z,20.70
2018-06-02T01:57:50.830Z,20.70
2018-06-02T02:00:19.133Z,20.70
2018-06-02T02:02:47.373Z,20.60
2018-06-02T02:05:15.620Z,20.60
2018-06-02T02:07:43.934Z,20.60
2018-06-02T02:10:13.403Z,20.60
2018-06-02T02:12:43.294Z,20.70
2018-06-02T02:15:11.594Z,20.70
2018-06-02T02:17:43.632Z,20.80
2018-06-02T02:20:11.942Z,20.70
2018-06-02T02:22:40.193Z,20.70
2018-06-02T02:25:09.271Z,20.70
2018-06-02T02:27:37.549Z,20.60
2018-06-02T02:30:06.601Z,20.90
2018-06-02T02:32:34.881Z,20.80
2018-06-02T02:35:03.157Z,21.00
2018-06-02T02:37:31.442Z,21.00
2018-06-02T02:40:00.923Z,21.10
2018-06-02T02:42:29.937Z,21.10
2018-06-02T02:44:58.215Z,21.10
2018-06-02T02:47:26.497Z,21.20
2018-06-02T02:49:54.813Z,21.10
2018-06-02T02:52:23.860Z,21.20
2018-06-02T02:54:52.236Z,21.10
2018-06-02T02:57:20.509Z,21.20
2018-06-02T02:59:48.817Z,21.20
2018-06-02T03:02:17.218Z,21.20
2018-06-02T03:04:47.516Z,21.20
2018-06-02T03:07:15.745Z,21.20
2018-06-02T03:09:45.066Z,21.20
2018-06-02T03:12:13.309Z,21.20
2018-06-02T03:14:41.626Z,21.20
2018-06-02T03:17:09.953Z,21.10
2018-06-02T03:19:38.971Z,21.10
2018-06-02T03:22:08.522Z,21.10
2018-06-02T03:24:36.771Z,21.20
2018-06-02T03:27:07.679Z,21.40
2018-06-02T03:29:36.704Z,21.40
2018-06-02T03:32:04.985Z,21.40
2018-06-02T03:34:33.276Z,21.40
2018-06-02T03:37:02.868Z,21.30
2018-06-02T03:39:31.124Z,21.30
2018-06-02T03:41:59.459Z,21.30
2018-06-02T03:44:27.739Z,21.20
2018-06-02T03:46:56.753Z,21.10
2018-06-02T03:49:25.950Z,21.10
2018-06-02T03:51:55.796Z,21.10
2018-06-02T03:54:24.064Z,21.10
2018-06-02T03:56:52.373Z,21.10
2018-06-02T03:59:21.876Z,21.10
2018-06-02T04:01:50.228Z,21.10
2018-06-02T04:04:18.518Z,21.10
2018-06-02T04:06:48.077Z,21.20
2018-06-02T04:09:17.929Z,21.20
2018-06-02T04:11:46.214Z,21.20
2018-06-02T04:14:14.486Z,21.20
2018-06-02T04:16:42.879Z,21.10
2018-06-02T04:19:11.157Z,21.10
2018-06-02T04:21:39.476Z,21.10
2018-06-02T04:24:08.661Z,21.00
2018-06-02T04:26:37.865Z,20.90
2018-06-02T04:29:06.154Z,20.90
2018-06-02T04:31:34.392Z,21.00
2018-06-02T04:34:03.564Z,20.90
2018-06-02T04:36:31.832Z,20.90
2018-06-02T04:39:01.554Z,21.00
2018-06-02T04:41:29.886Z,21.00
2018-06-02T04:43:58.128Z,21.10
2018-06-02T04:46:26.385Z,21.00
2018-06-02T04:48:54.686Z,21.00
2018-06-02T04:51:23.722Z,21.00
2018-06-02T04:53:52.775Z,20.90
2018-06-02T04:56:22.755Z,20.90
2018-06-02T04:58:51.035Z,20.90
2018-06-02T05:01:22.342Z,20.90
2018-06-02T05:03:52.666Z,20.90
2018-06-02T05:06:21.653Z,20.90
2018-06-02T05:08:49.976Z,20.90
2018-06-02T05:11:18.283Z,20.90
2018-06-02T05:13:46.569Z,20.90
2018-06-02T05:16:15.637Z,20.80
2018-06-02T05:18:43.899Z,20.80
2018-06-02T05:21:12.212Z,20.80
2018-06-02T05:23:42.466Z,20.80
2018-06-02T05:26:12.363Z,20.70
2018-06-02T05:28:41.529Z,20.70
2018-06-02T05:31:09.771Z,20.70
2018-06-02T05:33:38.081Z,20.70
2018-06-02T05:36:06.357Z,20.70
2018-06-02T05:38:35.420Z,20.80
2018-06-02T05:41:03.703Z,20.80
2018-06-02T05:43:32.024Z,20.80
2018-06-02T05:46:00.369Z,20.80
2018-06-02T05:48:28.570Z,20.90
2018-06-02T05:50:56.835Z,20.90
2018-06-02T05:53:25.221Z,21.00
2018-06-02T05:55:53.483Z,21.10
2018-06-02T05:58:21.776Z,21.10
2018-06-02T06:00:50.865Z,21.10
2018-06-02T06:03:19.236Z,21.10
2018-06-02T06:05:47.496Z,21.20
2018-06-02T06:08:15.801Z,21.20
2018-06-02T06:10:44.815Z,21.30
2018-06-02T06:13:13.159Z,21.30
2018-06-02T06:15:41.417Z,21.40
2018-06-02T06:18:09.684Z,21.50
2018-06-02T06:20:37.996Z,21.50
2018-06-02T06:23:06.273Z,21.70
2018-06-02T06:25:34.640Z,21.80
2018-06-02T06:28:02.881Z,21.80
2018-06-02T06:30:31.191Z,21.90
2018-06-02T06:32:59.542Z,22.00
2018-06-02T06:35:27.715Z,22.30
2018-06-02T06:37:56.040Z,22.60
2018-06-02T06:40:24.379Z,22.90
2018-06-02T06:42:52.652Z,22.90
2018-06-02T06:45:20.910Z,22.90
2018-06-02T06:47:49.229Z,22.80
2018-06-02T06:50:18.435Z,22.80
2018-06-02T06:52:46.729Z,22.70
2018-06-02T06:55:15.019Z,22.70
2018-06-02T06:57:43.342Z,22.60
2018-06-02T07:00:11.592Z,22.50
2018-06-02T07:02:39.840Z,22.50
2018-06-02T07:05:08.884Z,22.30
2018-06-02T07:07:37.128Z,22.30
2018-06-02T07:10:05.447Z,22.20
2018-06-02T07:12:33.700Z,22.10
2018-06-02T07:15:02.005Z,22.10
2018-06-02T07:17:30.251Z,22.10
2018-06-02T07:19:58.557Z,22.10
2018-06-02T07:22:26.927Z,22.10
2018-06-02T07:24:55.251Z,22.10
2018-06-02T07:27:23.500Z,22.20
2018-06-02T07:29:51.923Z,22.10
2018-06-02T07:32:20.176Z,22.10
2018-06-02T07:34:49.255Z,22.10
2018-06-02T07:37:18.277Z,21.90
2018-06-02T07:39:46.563Z,21.90
2018-06-02T07:42:14.860Z,22.00
2018-06-02T07:44:43.110Z,22.00
2018-06-02T07:47:11.418Z,22.10
2018-06-02T07:49:39.692Z,22.20
2018-06-02T07:52:07.976Z,22.20
2018-06-02T07:54:36.258Z,22.10
2018-06-02T07:57:04.591Z,21.90
2018-06-02T07:59:32.883Z,21.90
2018-06-02T08:02:01.187Z,22.00
2018-06-02T08:04:30.496Z,22.00
2018-06-02T08:06:58.759Z,22.00
2018-06-02T08:09:27.055Z,21.90
2018-06-02T08:11:55.415Z,21.80
2018-06-02T08:14:23.702Z,21.80
2018-06-02T08:16:52.757Z,21.90
2018-06-02T08:19:21.142Z,21.80
2018-06-02T08:21:50.329Z,21.80
2018-06-02T08:24:18.638Z,21.80
2018-06-02T08:26:48.192Z,21.80
2018-06-02T08:29:17.218Z,21.80
2018-06-02T08:31:45.618Z,21.80
2018-06-02T08:34:13.936Z,21.70
2018-06-02T08:36:42.995Z,21.70
2018-06-02T08:39:11.982Z,21.70
2018-06-02T08:41:40.252Z,21.70
2018-06-02T08:44:09.700Z,21.70
2018-06-02T08:46:38.724Z,21.80
2018-06-02T08:49:07.002Z,21.80
2018-06-02T08:51:35.300Z,21.90
2018-06-02T08:54:03.556Z,21.90
2018-06-02T08:56:31.929Z,21.90
2018-06-02T08:59:00.195Z,21.80
2018-06-02T09:01:28.502Z,21.80
2018-06-02T09:03:56.751Z,21.80
2018-06-02T09:06:25.044Z,21.90
2018-06-02T09:08:53.301Z,21.90
2018-06-02T09:11:22.489Z,21.90
2018-06-02T09:13:51.366Z,22.10
2018-06-02T09:16:20.440Z,22.20
2018-06-02T09:18:48.714Z,22.20
2018-06-02T09:21:17.030Z,22.40
2018-06-02T09:23:45.301Z,22.50
2018-06-02T09:26:13.600Z,22.60
2018-06-02T09:28:42.681Z,22.80
2018-06-02T09:31:11.737Z,22.90
2018-06-02T09:33:40.010Z,22.90
2018-06-02T09:36:09.043Z,22.90
2018-06-02T09:38:38.076Z,22.90
2018-06-02T09:41:07.458Z,22.90
2018-06-02T09:43:35.758Z,22.90
2018-06-02T09:46:07.743Z,22.90
2018-06-02T09:48:36.911Z,23.10
2018-06-02T09:51:05.231Z,23.20
2018-06-02T09:53:34.244Z,23.60
2018-06-02T09:56:02.636Z,23.60
2018-06-02T09:58:32.188Z,23.60
2018-06-02T10:01:00.532Z,23.60
2018-06-02T10:03:28.770Z,23.70
2018-06-02T10:05:57.909Z,23.80
2018-06-02T10:08:26.210Z,23.80
2018-06-02T10:10:54.526Z,23.90
2018-06-02T10:13:27.319Z,24.20
2018-06-02T10:15:56.366Z,24.40
2018-06-02T10:18:25.849Z,24.40
2018-06-02T10:20:54.257Z,24.40
2018-06-02T10:23:22.556Z,24.50
2018-06-02T10:25:51.717Z,24.30
2018-06-02T10:28:21.118Z,24.30
2018-06-02T10:30:50.158Z,24.40
2018-06-02T10:33:19.222Z,24.60
2018-06-02T10:35:47.504Z,24.60
2018-06-02T10:38:15.805Z,24.70
2018-06-02T10:40:44.125Z,24.80
2018-06-02T10:43:12.404Z,24.50
2018-06-02T10:45:41.272Z,24.50
2018-06-02T10:48:09.535Z,24.50
2018-06-02T10:50:37.832Z,24.60
2018-06-02T10:53:06.110Z,24.70
2018-06-02T10:55:34.434Z,24.50
2018-06-02T10:58:02.809Z,24.20
2018-06-02T11:00:31.171Z,24.20
2018-06-02T11:03:00.282Z,24.20
2018-06-02T11:05:28.575Z,24.20
2018-06-02T11:07:57.655Z,24.10
2018-06-02T11:10:26.711Z,23.90
2018-06-02T11:12:54.982Z,23.90
2018-06-02T11:15:23.292Z,23.90
2018-06-02T11:17:52.088Z,24.00
2018-06-02T11:20:21.170Z,23.80
2018-06-02T11:22:49.443Z,23.80
2018-06-02T11:25:17.740Z,23.80
2018-06-02T11:27:46.028Z,23.60
2018-06-02T11:30:15.069Z,23.40
2018-06-02T11:32:43.359Z,23.40
2018-06-02T11:35:11.677Z,23.20
2018-06-02T11:37:40.737Z,23.40
2018-06-02T11:40:09.121Z,23.40
2018-06-02T11:42:37.505Z,23.30
2018-06-02T11:45:07.056Z,23.20
2018-06-02T11:47:36.524Z,23.20
2018-06-02T11:50:04.837Z,23.30
2018-06-02T11:52:33.838Z,23.00
2018-06-02T11:55:02.472Z,22.90
2018-06-02T11:57:30.776Z,22.80
2018-06-02T11:59:59.047Z,22.70
2018-06-02T12:02:28.452Z,22.60
2018-06-02T12:04:57.491Z,22.60
2018-06-02T12:07:25.777Z,22.60
2018-06-02T12:09:54.024Z,22.50
2018-06-02T12:12:22.459Z,22.30
2018-06-02T12:14:51.477Z,22.20
2018-06-02T12:17:19.831Z,22.20
2018-06-02T12:19:48.085Z,22.20
2018-06-02T12:22:16.464Z,22.30
2018-06-02T12:24:48.590Z,22.40
2018-06-02T12:27:16.841Z,22.40
2018-06-02T12:29:45.915Z,22.40
2018-06-02T12:32:14.202Z,22.40
2018-06-02T12:34:43.366Z,22.50
2018-06-02T12:37:11.640Z,22.50
2018-06-02T12:39:41.893Z,22.50
2018-06-02T12:42:10.180Z,22.50
2018-06-02T12:44:38.536Z,22.50
2018-06-02T12:47:06.835Z,22.50
2018-06-02T12:49:35.896Z,22.40
2018-06-02T12:52:04.214Z,22.40
2018-06-02T12:54:33.254Z,22.40
2018-06-02T12:57:01.541Z,22.40
2018-06-02T12:59:30.645Z,22.50
2018-06-02T13:01:58.960Z,22.60
2018-06-02T13:04:28.023Z,22.80
2018-06-02T13:06:56.301Z,22.70
2018-06-02T13:09:25.348Z,22.90
2018-06-02T13:11:54.385Z,22.90
2018-06-02T13:14:23.023Z,22.90
2018-06-02T13:16:51.265Z,22.90
2018-06-02T13:19:20.359Z,22.70
2018-06-02T13:21:48.691Z,22.60
2018-06-02T13:24:17.915Z,22.60
2018-06-02T13:26:46.223Z,22.60
2018-06-02T13:29:15.313Z,22.60
2018-06-02T13:31:44.472Z,22.50
2018-06-02T13:34:12.793Z,22.50
2018-06-02T13:36:41.822Z,22.50
2018-06-02T13:39:10.128Z,22.50
2018-06-02T13:41:38.397Z,22.60
2018-06-02T13:44:06.721Z,22.50
2018-06-02T13:46:35.732Z,22.50
2018-06-02T13:49:04.079Z,22.50
2018-06-02T13:51:32.354Z,22.50
2018-06-02T13:54:01.427Z,22.50
2018-06-02T13:56:29.812Z,22.50
2018-06-02T13:58:58.971Z,22.60
2018-06-02T14:01:27.273Z,22.60
2018-06-02T14:03:56.413Z,22.60
2018-06-02T14:06:24.764Z,22.60
2018-06-02T14:08:53.393Z,22.60
2018-06-02T14:11:21.702Z,22.60
2018-06-02T14:13:50.023Z,22.70
2018-06-02T14:16:19.987Z,22.70
2018-06-02T14:18:49.548Z,22.70
2018-06-02T14:21:17.778Z,22.60
2018-06-02T14:23:46.121Z,22.60
2018-06-02T14:26:14.389Z,22.60
2018-06-02T14:28:42.702Z,22.60
2018-06-02T14:31:11.018Z,22.50
2018-06-02T14:33:40.444Z,22.40
2018-06-02T14:36:09.499Z,22.10
2018-06-02T14:38:37.778Z,22.10
2018-06-02T14:41:06.856Z,22.10
2018-06-02T14:43:35.338Z,22.10
2018-06-02T14:46:03.628Z,22.00
2018-06-02T14:48:32.025Z,22.00
2018-06-02T14:51:00.386Z,21.80
2018-06-02T14:53:29.540Z,21.80
2018-06-02T14:55:57.813Z,21.80
2018-06-02T14:58:26.065Z,21.90
2018-06-02T15:00:55.127Z,22.20
2018-06-02T15:03:24.165Z,22.20
2018-06-02T15:05:53.617Z,22.30
2018-06-02T15:08:21.860Z,22.30
2018-06-02T15:10:50.148Z,22.30
2018-06-02T15:13:18.471Z,22.30
2018-06-02T15:15:46.763Z,22.20
2018-06-02T15:18:15.858Z,22.30
2018-06-02T15:20:44.865Z,22.30
2018-06-02T15:23:13.253Z,22.30
2018-06-02T15:25:42.341Z,22.40
2018-06-02T15:28:11.337Z,22.30
2018-06-02T15:30:39.590Z,22.40
2018-06-02T15:33:08.733Z,22.40
2018-06-02T15:35:38.261Z,22.40
2018-06-02T15:38:06.533Z,22.50
2018-06-02T15:40:34.908Z,22.50
2018-06-02T15:43:03.229Z,22.60
2018-06-02T15:45:32.300Z,22.60
2018-06-02T15:48:01.728Z,22.60
2018-06-02T15:50:30.904Z,22.50
2018-06-02T15:53:00.142Z,22.40
2018-06-02T15:55:28.453Z,22.40
2018-06-02T15:57:56.747Z,22.30
2018-06-02T16:00:25.047Z,22.40
2018-06-02T16:02:54.092Z,22.50
2018-06-02T16:05:22.401Z,22.50
2018-06-02T16:07:52.207Z,22.40
2018-06-02T16:10:20.506Z,22.40
2018-06-02T16:12:49.405Z,22.40
2018-06-02T16:15:18.461Z,22.10
2018-06-02T16:17:46.765Z,22.10
2018-06-02T16:20:17.300Z,22.10
2018-06-02T16:22:45.653Z,22.00
2018-06-02T16:25:13.970Z,22.00
2018-06-02T16:27:43.044Z,21.90
2018-06-02T16:30:13.038Z,21.80
2018-06-02T16:32:42.069Z,21.80
2018-06-02T16:35:11.079Z,21.80
2018-06-02T16:37:39.383Z,21.80
2018-06-02T16:40:08.586Z,21.70
2018-06-02T16:42:36.836Z,21.50
2018-06-02T16:45:05.138Z,21.50
2018-06-02T16:47:34.066Z,21.50
2018-06-02T16:50:02.341Z,21.50
2018-06-02T16:52:30.617Z,21.50
2018-06-02T16:54:59.673Z,21.30
2018-06-02T16:57:28.758Z,21.30
2018-06-02T16:59:57.926Z,21.30
2018-06-02T17:02:27.053Z,21.20
2018-06-02T17:04:55.330Z,21.20
2018-06-02T17:07:23.634Z,21.20
2018-06-02T17:09:51.898Z,21.20
2018-06-02T17:12:20.163Z,21.20
2018-06-02T17:14:48.450Z,21.10
2018-06-02T17:17:16.732Z,21.00
2018-06-02T17:19:46.365Z,21.10
2018-06-02T17:22:16.297Z,21.00
2018-06-02T17:24:45.470Z,21.00
2018-06-02T17:27:13.746Z,21.00
2018-06-02T17:29:42.058Z,21.00
2018-06-02T17:32:11.445Z,20.90
2018-06-02T17:34:39.762Z,20.80
2018-06-02T17:37:08.064Z,20.70
2018-06-02T17:39:36.355Z,20.60
2018-06-02T17:42:04.633Z,20.70
2018-06-02T17:44:32.918Z,20.70
2018-06-02T17:47:08.887Z,20.70
2018-06-02T17:49:37.170Z,20.70
2018-06-02T17:52:06.228Z,20.60
2018-06-02T17:54:34.476Z,20.60
2018-06-02T17:57:02.773Z,20.60
2018-06-02T17:59:31.859Z,20.60
2018-06-02T18:02:00.128Z,20.50
2018-06-02T18:04:28.397Z,20.50
2018-06-02T18:06:57.562Z,20.50
2018-06-02T18:09:26.584Z,20.40
2018-06-02T18:11:54.900Z,20.40
2018-06-02T18:14:24.368Z,20.50
2018-06-02T18:16:52.710Z,20.50
2018-06-02T18:19:22.153Z,20.60
2018-06-02T18:21:50.832Z,20.60
2018-06-02T18:24:19.101Z,20.50
2018-06-02T18:26:47.413Z,20.50
2018-06-02T18:29:15.732Z,20.40
2018-06-02T18:31:44.009Z,20.40
2018-06-02T18:34:12.362Z,20.50
2018-06-02T18:36:40.650Z,20.50
2018-06-02T18:39:09.698Z,20.60
2018-06-02T18:41:38.093Z,20.60
2018-06-02T18:44:06.389Z,20.70
2018-06-02T18:46:34.690Z,20.70
2018-06-02T18:49:03.876Z,20.60
2018-06-02T18:51:32.193Z,20.60
2018-06-02T18:54:00.464Z,20.60
2018-06-02T18:56:28.783Z,20.50
2018-06-02T18:58:58.284Z,20.50
2018-06-02T19:01:28.554Z,20.60
2018-06-02T19:03:58.594Z,20.40
2018-06-02T19:06:26.902Z,20.40
2018-06-02T19:08:55.211Z,20.30
2018-06-02T19:11:24.285Z,20.20
2018-06-02T19:13:52.616Z,20.20
2018-06-02T19:16:20.936Z,20.10
2018-06-02T19:18:49.249Z,19.80
2018-06-02T19:21:17.542Z,19.70
2018-06-02T19:23:45.847Z,19.60
2018-06-02T19:26:14.131Z,19.50
2018-06-02T19:28:42.518Z,19.40
2018-06-02T19:31:10.786Z,19.50
2018-06-02T19:33:39.116Z,19.40
2018-06-02T19:36:07.458Z,19.40
2018-06-02T19:38:35.763Z,19.40
2018-06-02T19:41:04.834Z,19.40
2018-06-02T19:43:33.169Z,19.40
2018-06-02T19:46:01.463Z,19.40
2018-06-02T19:48:30.222Z,19.20
2018-06-02T19:50:58.593Z,19.20
2018-06-02T19:53:27.856Z,19.20
2018-06-02T19:55:57.136Z,19.20
2018-06-02T19:58:25.425Z,19.20
2018-06-02T20:00:53.709Z,19.20
2018-06-02T20:03:22.806Z,19.20
2018-06-02T20:05:51.889Z,19.10
2018-06-02T20:08:20.181Z,19.10
2018-06-02T20:10:48.472Z,19.10
2018-06-02T20:13:16.799Z,19.10
2018-06-02T20:15:46.240Z,19.10
2018-06-02T20:18:14.533Z,19.10
2018-06-02T20:20:43.595Z,19.20
2018-06-02T20:23:11.945Z,19.20
2018-06-02T20:25:40.206Z,19.20
2018-06-02T20:28:08.514Z,19.20
2018-06-02T20:30:36.770Z,19.20
2018-06-02T20:33:05.132Z,19.20
2018-06-02T20:35:33.403Z,19.10
2018-06-02T20:38:01.699Z,19.20
2018-06-02T20:40:29.996Z,19.20
2018-06-02T20:42:58.337Z,19.10
2018-06-02T20:45:26.589Z,19.10
2018-06-02T20:47:55.713Z,19.10
2018-06-02T20:50:24.135Z,19.10
2018-06-02T20:52:52.408Z,19.10
2018-06-02T20:55:20.775Z,19.00
2018-06-02T20:57:49.092Z,19.00
2018-06-02T21:00:18.172Z,18.90
2018-06-02T21:02:46.960Z,18.90
2018-06-02T21:05:15.246Z,18.90
2018-06-02T21:07:44.361Z,18.70
2018-06-02T21:10:12.633Z,18.70
2018-06-02T21:12:40.921Z,18.80
2018-06-02T21:15:09.188Z,18.80
2018-06-02T21:17:37.635Z,18.70
2018-06-02T21:20:07.204Z,18.80
2018-06-02T21:22:35.561Z,18.70
2018-06-02T21:25:04.695Z,18.80
2018-06-02T21:27:32.982Z,18.80
2018-06-02T21:30:02.024Z,18.80
2018-06-02T21:32:30.349Z,18.70
2018-06-02T21:34:58.635Z,18.80
2018-06-02T21:37:26.936Z,18.80
2018-06-02T21:39:55.955Z,18.80
2018-06-02T21:42:24.246Z,18.80
2018-06-02T21:44:52.501Z,18.90
2018-06-02T21:47:20.834Z,18.80
2018-06-02T21:49:49.079Z,18.90
2018-06-02T21:52:17.419Z,18.90
2018-06-02T21:54:45.680Z,18.90
2018-06-02T21:57:13.948Z,18.90
2018-06-02T21:59:43.012Z,18.90
2018-06-02T22:02:11.357Z,18.90
2018-06-02T22:04:40.913Z,19.00
2018-06-02T22:07:09.305Z,19.00
2018-06-02T22:09:41.355Z,19.10
2018-06-02T22:12:10.246Z,19.10
2018-06-02T22:14:39.676Z,19.10
2018-06-02T22:17:07.971Z,19.10
2018-06-02T22:19:36.312Z,19.10
2018-06-02T22:22:04.616Z,19.10
2018-06-02T22:24:33.652Z,19.10
2018-06-02T22:27:01.953Z,19.00
2018-06-02T22:29:31.776Z,19.00
2018-06-02T22:32:00.061Z,19.00
2018-06-02T22:34:28.346Z,19.00
2018-06-02T22:36:57.453Z,18.90
2018-06-02T22:39:26.519Z,18.90
2018-06-02T22:41:54.888Z,18.90
2018-06-02T22:44:23.142Z,18.80
2018-06-02T22:46:51.455Z,18.80
2018-06-02T22:49:20.515Z,18.70
2018-06-02T22:51:57.729Z,18.70
2018-06-02T22:54:26.776Z,18.60
2018-06-02T22:56:55.231Z,18.60
2018-06-02T22:59:24.319Z,18.60
2018-06-02T23:01:53.349Z,18.60
2018-06-02T23:04:22.170Z,18.50
2018-06-02T23:06:50.502Z,18.50
2018-06-02T23:09:20.214Z,18.50
2018-06-02T23:11:48.297Z,18.50
2018-06-02T23:14:17.109Z,18.50
2018-06-02T23:16:45.205Z,18.50
2018-06-02T23:19:13.354Z,18.50
2018-06-02T23:21:41.426Z,18.50
2018-06-02T23:24:09.483Z,18.50
2018-06-02T23:26:37.557Z,18.50
2018-06-02T23:29:05.620Z,18.40
2018-06-02T23:31:34.429Z,18.40
2018-06-02T23:34:02.459Z,18.40
2018-06-02T23:36:31.274Z,18.30
2018-06-02T23:38:59.368Z,18.20
2018-06-02T23:41:27.419Z,18.30
2018-06-02T23:43:55.474Z,18.30
2018-06-02T23:46:23.488Z,18.30
2018-06-02T23:48:51.542Z,18.30
2018-06-02T23:51:19.593Z,18.30
2018-06-02T23:53:47.650Z,18.30
2018-06-02T23:56:16.493Z,18.30
2018-06-02T23:58:44.721Z,18.30
